createdAt,value
2022-11-14T00:00:43.583Z,97946.06
2022-11-14T00:01:45.127Z,97944.03
2022-11-14T00:02:46.707Z,97949.34
2022-11-14T00:03:51.086Z,97945.91
2022-11-14T00:04:52.642Z,97951.47
2022-11-14T00:05:54.201Z,97946.09
2022-11-14T00:06:55.776Z,97952.78
2022-11-14T00:07:57.549Z,97945.00
2022-11-14T00:08:59.061Z,97943.13
2022-11-14T00:10:00.965Z,97948.69
2022-11-14T00:11:02.643Z,97949.22
2022-11-14T00:12:04.790Z,97945.19
2022-11-14T00:13:06.342Z,97946.03
2022-11-14T00:14:09.370Z,97939.09
2022-11-14T00:15:11.476Z,97948.78
2022-11-14T00:16:13.026Z,97945.66
2022-11-14T00:17:14.769Z,97946.75
2022-11-14T00:18:16.934Z,97945.72
2022-11-14T00:19:18.556Z,97946.31
2022-11-14T00:20:20.242Z,97944.97
2022-11-14T00:21:21.797Z,97945.50
2022-11-14T00:22:23.331Z,97951.09
2022-11-14T00:23:24.913Z,97952.97
2022-11-14T00:24:26.524Z,97953.75
2022-11-14T00:25:28.127Z,97952.19
2022-11-14T00:26:29.916Z,97951.66
2022-11-14T00:27:31.416Z,97951.38
2022-11-14T00:28:33.169Z,97948.97
2022-11-14T00:29:34.875Z,97949.22
2022-11-14T00:30:36.395Z,97950.81
2022-11-14T00:31:37.983Z,97943.91
2022-11-14T00:32:39.599Z,97947.66
2022-11-14T00:33:41.592Z,97943.13
2022-11-14T00:34:43.349Z,97942.63
2022-11-14T00:35:54.429Z,97945.34
2022-11-14T00:36:55.953Z,97943.19
2022-11-14T00:37:57.490Z,97951.19
2022-11-14T00:38:59.343Z,97944.84
2022-11-14T00:40:00.896Z,97942.69
2022-11-14T00:41:02.603Z,97947.44
2022-11-14T00:42:04.326Z,97944.78
2022-11-14T00:43:05.821Z,97942.69
2022-11-14T00:44:08.237Z,97943.22
2022-11-14T00:45:10.416Z,97939.06
2022-11-14T00:46:12.276Z,97935.91
2022-11-14T00:47:14.992Z,97940.25
2022-11-14T00:48:16.633Z,97944.47
2022-11-14T00:49:18.202Z,97951.09
2022-11-14T00:50:19.751Z,97942.81
2022-11-14T00:51:21.271Z,97942.75
2022-11-14T00:52:22.776Z,97943.22
2022-11-14T00:53:24.298Z,97943.97
2022-11-14T00:54:26.743Z,97936.81
2022-11-14T00:55:28.286Z,97939.56
2022-11-14T00:56:29.855Z,97945.78
2022-11-14T00:57:31.414Z,97946.06
2022-11-14T00:58:33.215Z,97945.06
2022-11-14T00:59:34.884Z,97940.28
2022-11-14T01:00:37.118Z,97946.66
2022-11-14T01:01:38.765Z,97942.38
2022-11-14T01:02:40.483Z,97930.66
2022-11-14T01:03:42.061Z,97944.16
2022-11-14T01:04:43.653Z,97939.34
2022-11-14T01:05:47.857Z,97929.94
2022-11-14T01:06:49.400Z,97937.94
2022-11-14T01:07:50.978Z,97936.34
2022-11-14T01:08:52.916Z,97935.75
2022-11-14T01:09:54.436Z,97929.28
2022-11-14T01:10:55.947Z,97934.31
2022-11-14T01:11:57.535Z,97924.44
2022-11-14T01:12:59.088Z,97928.97
2022-11-14T01:14:00.612Z,97927.16
2022-11-14T01:15:02.127Z,97932.50
2022-11-14T01:16:03.835Z,97931.41
2022-11-14T01:17:05.437Z,97927.69
2022-11-14T01:18:06.967Z,97938.66
2022-11-14T01:19:09.112Z,97934.41
2022-11-14T01:20:10.835Z,97937.91
2022-11-14T01:21:13.632Z,97933.72
2022-11-14T01:22:15.151Z,97938.25
2022-11-14T01:23:17.289Z,97936.91
2022-11-14T01:24:18.893Z,97933.94
2022-11-14T01:25:20.438Z,97936.59
2022-11-14T01:26:22.062Z,97928.84
2022-11-14T01:27:23.809Z,97927.00
2022-11-14T01:28:25.366Z,97930.47
2022-11-14T01:29:27.037Z,97934.94
2022-11-14T01:30:28.623Z,97929.34
2022-11-14T01:31:30.184Z,97925.59
2022-11-14T01:32:31.752Z,97930.31
2022-11-14T01:33:33.324Z,97930.81
2022-11-14T01:34:34.838Z,97928.59
2022-11-14T01:35:38.273Z,97921.09
2022-11-14T01:36:39.777Z,97929.84
2022-11-14T01:37:41.347Z,97921.03
2022-11-14T01:38:42.891Z,97924.97
2022-11-14T01:39:44.447Z,97925.72
2022-11-14T01:40:46.585Z,97929.47
2022-11-14T01:41:48.102Z,97927.50
2022-11-14T01:43:11.423Z,97929.38
2022-11-14T01:44:17.914Z,97925.00
2022-11-14T01:45:50.586Z,97927.09
2022-11-14T01:46:56.298Z,97923.34
2022-11-14T01:47:57.836Z,97925.75
2022-11-14T01:49:05.088Z,97923.84
2022-11-14T01:50:06.887Z,97926.19
2022-11-14T01:51:23.726Z,97928.91
2022-11-14T01:52:33.511Z,97928.41
2022-11-14T01:53:35.082Z,97926.16
2022-11-14T01:54:38.906Z,97924.44
2022-11-14T01:55:40.584Z,97929.94
2022-11-14T01:56:52.978Z,97931.94
2022-11-14T01:57:55.317Z,97934.34
2022-11-14T01:59:07.424Z,97934.91
2022-11-14T02:00:12.329Z,97936.53
2022-11-14T02:01:14.065Z,97928.59
2022-11-14T02:02:18.939Z,97927.53
2022-11-14T02:03:21.088Z,97928.13
2022-11-14T02:04:35.289Z,97936.66
2022-11-14T02:05:37.728Z,97933.75
2022-11-14T02:06:40.341Z,97927.66
2022-11-14T02:07:41.912Z,97930.88
2022-11-14T02:08:44.597Z,97925.03
2022-11-14T02:09:47.715Z,97934.38
2022-11-14T02:10:49.302Z,97933.56
2022-11-14T02:11:53.661Z,97934.63
2022-11-14T02:12:55.330Z,97930.94
2022-11-14T02:13:58.379Z,97934.09
2022-11-14T02:15:00.985Z,97923.22
2022-11-14T02:16:02.625Z,97921.09
2022-11-14T02:17:31.551Z,97923.47
2022-11-14T02:18:26.197Z,97930.38
2022-11-14T02:19:48.909Z,97925.88
2022-11-14T02:20:50.428Z,97929.31
2022-11-14T02:21:52.093Z,97929.31
2022-11-14T02:22:53.638Z,97921.84
2022-11-14T02:23:55.166Z,97920.81
2022-11-14T02:24:56.746Z,97924.53
2022-11-14T02:25:58.720Z,97925.31
2022-11-14T02:27:00.267Z,97926.66
2022-11-14T02:28:02.856Z,97929.31
2022-11-14T02:29:05.694Z,97932.78
2022-11-14T02:30:11.318Z,97932.25
2022-11-14T02:31:13.133Z,97930.91
2022-11-14T02:32:14.698Z,97929.84
2022-11-14T02:33:16.664Z,97932.50
2022-11-14T02:34:20.294Z,97930.94
2022-11-14T02:35:21.961Z,97925.59
2022-11-14T02:36:23.491Z,97934.63
2022-11-14T02:37:25.016Z,97927.94
2022-11-14T02:38:26.541Z,97925.56
2022-11-14T02:39:28.197Z,97931.66
2022-11-14T02:40:29.786Z,97928.44
2022-11-14T02:41:31.583Z,97919.13
2022-11-14T02:42:33.167Z,97920.16
2022-11-14T02:43:34.844Z,97922.78
2022-11-14T02:44:36.393Z,97916.91
2022-11-14T02:45:37.926Z,97918.44
2022-11-14T02:46:39.615Z,97918.97
2022-11-14T02:47:41.141Z,97917.34
2022-11-14T02:48:42.663Z,97914.91
2022-11-14T02:49:44.197Z,97913.59
2022-11-14T02:50:48.902Z,97917.28
2022-11-14T02:51:50.416Z,97916.47
2022-11-14T02:52:53.880Z,97911.38
2022-11-14T02:53:55.421Z,97915.41
2022-11-14T02:54:57.007Z,97911.44
2022-11-14T02:55:58.547Z,97910.97
2022-11-14T02:57:00.082Z,97903.06
2022-11-14T02:58:01.607Z,97904.22
2022-11-14T02:59:03.331Z,97903.19
2022-11-14T03:00:11.692Z,97908.00
2022-11-14T03:01:21.201Z,97902.16
2022-11-14T03:02:23.190Z,97904.28
2022-11-14T03:03:24.711Z,97900.53
2022-11-14T03:04:26.350Z,97897.31
2022-11-14T03:05:27.884Z,97901.03
2022-11-14T03:06:29.406Z,97898.94
2022-11-14T03:07:31.168Z,97897.09
2022-11-14T03:08:33.034Z,97897.38
2022-11-14T03:09:34.556Z,97894.19
2022-11-14T03:10:36.080Z,97893.16
2022-11-14T03:11:39.051Z,97899.50
2022-11-14T03:12:40.635Z,97894.72
2022-11-14T03:13:42.220Z,97893.91
2022-11-14T03:14:44.107Z,97890.97
2022-11-14T03:15:46.041Z,97889.63
2022-11-14T03:16:47.550Z,97897.31
2022-11-14T03:17:49.495Z,97895.19
2022-11-14T03:18:51.048Z,97901.78
2022-11-14T03:19:52.587Z,97894.59
2022-11-14T03:20:54.131Z,97894.03
2022-11-14T03:21:55.691Z,97899.84
2022-11-14T03:22:57.245Z,97893.44
2022-11-14T03:23:58.852Z,97900.88
2022-11-14T03:25:00.680Z,97889.97
2022-11-14T03:26:03.911Z,97893.94
2022-11-14T03:27:05.469Z,97894.44
2022-11-14T03:28:07.005Z,97897.63
2022-11-14T03:29:08.582Z,97893.88
2022-11-14T03:30:10.798Z,97894.94
2022-11-14T03:31:14.211Z,97892.25
2022-11-14T03:32:16.512Z,97890.88
2022-11-14T03:33:18.037Z,97893.28
2022-11-14T03:34:19.594Z,97892.44
2022-11-14T03:35:21.144Z,97896.69
2022-11-14T03:36:22.912Z,97895.31
2022-11-14T03:37:24.471Z,97888.91
2022-11-14T03:38:26.044Z,97888.13
2022-11-14T03:39:27.729Z,97887.84
2022-11-14T03:40:29.313Z,97878.81
2022-11-14T03:41:31.202Z,97881.47
2022-11-14T03:42:36.248Z,97883.81
2022-11-14T03:43:37.832Z,97883.06
2022-11-14T03:44:39.532Z,97873.69
2022-11-14T03:45:41.065Z,97885.16
2022-11-14T03:46:42.614Z,97885.16
2022-11-14T03:47:44.170Z,97882.22
2022-11-14T03:48:45.786Z,97880.06
2022-11-14T03:49:47.315Z,97880.84
2022-11-14T03:50:48.840Z,97881.38
2022-11-14T03:51:50.878Z,97878.16
2022-11-14T03:52:52.403Z,97876.03
2022-11-14T03:53:54.002Z,97871.72
2022-11-14T03:54:55.534Z,97875.97
2022-11-14T03:55:57.092Z,97875.41
2022-11-14T03:56:58.646Z,97878.88
2022-11-14T03:58:00.326Z,97878.88
2022-11-14T03:59:01.984Z,97878.06
2022-11-14T04:00:04.438Z,97874.91
2022-11-14T04:01:06.064Z,97878.66
2022-11-14T04:02:07.567Z,97868.53
2022-11-14T04:03:09.094Z,97870.41
2022-11-14T04:04:12.672Z,97878.94
2022-11-14T04:05:14.587Z,97883.72
2022-11-14T04:06:16.244Z,97875.44
2022-11-14T04:07:17.864Z,97874.91
2022-11-14T04:08:19.535Z,97870.38
2022-11-14T04:09:21.120Z,97870.91
2022-11-14T04:10:23.022Z,97869.09
2022-11-14T04:11:24.569Z,97869.91
2022-11-14T04:12:26.312Z,97865.91
2022-11-14T04:13:27.903Z,97868.84
2022-11-14T04:14:29.541Z,97862.75
2022-11-14T04:15:31.268Z,97864.53
2022-11-14T04:16:32.830Z,97873.78
2022-11-14T04:17:39.512Z,97875.22
2022-11-14T04:18:41.403Z,97869.06
2022-11-14T04:19:43.059Z,97871.19
2022-11-14T04:20:44.588Z,97871.47
2022-11-14T04:21:46.134Z,97873.06
2022-11-14T04:22:47.724Z,97871.75
2022-11-14T04:23:49.304Z,97869.66
2022-11-14T04:24:50.831Z,97871.00
2022-11-14T04:25:52.364Z,97859.56
2022-11-14T04:26:53.940Z,97874.22
2022-11-14T04:27:55.499Z,97871.91
2022-11-14T04:28:57.011Z,97876.19
2022-11-14T04:29:58.523Z,97877.78
2022-11-14T04:31:01.255Z,97868.72
2022-11-14T04:32:02.880Z,97874.06
2022-11-14T04:33:04.807Z,97867.97
2022-11-14T04:34:06.313Z,97870.13
2022-11-14T04:35:08.306Z,97865.31
2022-11-14T04:36:10.355Z,97870.38
2022-11-14T04:37:12.062Z,97871.97
2022-11-14T04:38:13.843Z,97874.09
2022-11-14T04:39:15.361Z,97873.28
2022-11-14T04:40:17.070Z,97873.28
2022-11-14T04:41:18.676Z,97876.75
2022-11-14T04:42:20.182Z,97870.91
2022-11-14T04:43:21.895Z,97869.31
2022-11-14T04:44:23.424Z,97867.19
2022-11-14T04:45:24.977Z,97872.50
2022-11-14T04:46:26.562Z,97876.75
2022-11-14T04:47:28.103Z,97867.97
2022-11-14T04:48:29.852Z,97876.50
2022-11-14T04:49:31.581Z,97875.94
2022-11-14T04:50:33.102Z,97877.28
2022-11-14T04:51:34.629Z,97876.72
2022-11-14T04:52:36.464Z,97875.91
2022-11-14T04:53:38.270Z,97878.78
2022-11-14T04:54:39.844Z,97877.19
2022-11-14T04:55:41.376Z,97883.03
2022-11-14T04:56:43.170Z,97880.94
2022-11-14T04:57:44.896Z,97880.13
2022-11-14T04:58:46.392Z,97871.91
2022-11-14T04:59:48.021Z,97878.53
2022-11-14T05:00:49.561Z,97878.28
2022-11-14T05:01:51.192Z,97880.38
2022-11-14T05:02:52.833Z,97866.88
2022-11-14T05:03:54.584Z,97873.50
2022-11-14T05:04:56.207Z,97872.44
2022-11-14T05:06:00.961Z,97873.22
2022-11-14T05:07:02.605Z,97880.41
2022-11-14T05:08:04.441Z,97878.28
2022-11-14T05:09:06.081Z,97879.31
2022-11-14T05:10:08.578Z,97882.47
2022-11-14T05:11:18.390Z,97886.22
2022-11-14T05:12:20.076Z,97880.38
2022-11-14T05:13:21.875Z,97873.50
2022-11-14T05:14:23.412Z,97876.16
2022-11-14T05:15:24.977Z,97877.22
2022-11-14T05:16:26.562Z,97878.31
2022-11-14T05:17:28.361Z,97868.28
2022-11-14T05:18:30.167Z,97883.13
2022-11-14T05:19:31.906Z,97879.41
2022-11-14T05:20:33.465Z,97865.88
2022-11-14T05:21:34.996Z,97876.75
2022-11-14T05:22:36.726Z,97870.38
2022-11-14T05:23:38.310Z,97873.56
2022-11-14T05:24:39.941Z,97869.56
2022-11-14T05:25:41.550Z,97873.00
2022-11-14T05:26:43.109Z,97870.59
2022-11-14T05:27:44.615Z,97877.50
2022-11-14T05:28:46.205Z,97873.25
2022-11-14T05:29:47.747Z,97875.13
2022-11-14T05:30:49.242Z,97874.59
2022-11-14T05:31:50.766Z,97879.09
2022-11-14T05:32:52.582Z,97876.19
2022-11-14T05:33:54.204Z,97880.69
2022-11-14T05:34:55.755Z,97875.91
2022-11-14T05:36:02.503Z,97886.84
2022-11-14T05:37:04.137Z,97881.00
2022-11-14T05:38:05.665Z,97881.81
2022-11-14T05:39:07.539Z,97879.41
2022-11-14T05:40:09.783Z,97876.75
2022-11-14T05:41:20.256Z,97886.28
2022-11-14T05:42:21.864Z,97881.53
2022-11-14T05:43:23.505Z,97879.38
2022-11-14T05:44:25.118Z,97878.56
2022-11-14T05:45:26.642Z,97875.09
2022-11-14T05:46:28.182Z,97884.63
2022-11-14T05:47:29.821Z,97880.91
2022-11-14T05:48:32.565Z,97879.81
2022-11-14T05:49:34.653Z,97875.56
2022-11-14T05:50:36.399Z,97872.38
2022-11-14T05:51:37.953Z,97873.38
2022-11-14T05:52:39.604Z,97871.25
2022-11-14T05:53:41.612Z,97877.31
2022-11-14T05:54:43.155Z,97876.78
2022-11-14T05:55:44.671Z,97880.25
2022-11-14T05:56:46.247Z,97878.38
2022-11-14T05:57:47.823Z,97878.63
2022-11-14T05:58:49.375Z,97879.13
2022-11-14T05:59:51.011Z,97875.66
2022-11-14T06:00:54.538Z,97879.88
2022-11-14T06:01:56.378Z,97880.13
2022-11-14T06:02:58.002Z,97886.47
2022-11-14T06:03:59.624Z,97884.84
2022-11-14T06:05:01.402Z,97879.50
2022-11-14T06:06:05.224Z,97871.06
2022-11-14T06:07:06.904Z,97878.56
2022-11-14T06:08:08.504Z,97879.88
2022-11-14T06:09:10.088Z,97893.44
2022-11-14T06:10:11.992Z,97888.16
2022-11-14T06:11:16.098Z,97886.53
2022-11-14T06:12:18.190Z,97888.59
2022-11-14T06:13:19.731Z,97886.19
2022-11-14T06:14:21.366Z,97893.06
2022-11-14T06:15:22.954Z,97889.31
2022-11-14T06:16:24.866Z,97889.09
2022-11-14T06:17:26.424Z,97890.16
2022-11-14T06:18:30.024Z,97895.47
2022-11-14T06:19:31.814Z,97891.44
2022-11-14T06:20:33.356Z,97896.78
2022-11-14T06:21:34.959Z,97900.44
2022-11-14T06:22:36.446Z,97896.44
2022-11-14T06:23:38.465Z,97891.09
2022-11-14T06:24:40.034Z,97893.47
2022-11-14T06:25:41.640Z,97893.78
2022-11-14T06:26:43.158Z,97895.31
2022-11-14T06:27:44.683Z,97890.72
2022-11-14T06:28:46.546Z,97897.06
2022-11-14T06:29:48.051Z,97895.56
2022-11-14T06:30:49.601Z,97889.97
2022-11-14T06:31:51.229Z,97887.88
2022-11-14T06:32:58.808Z,97886.81
2022-11-14T06:34:00.358Z,97889.69
2022-11-14T06:35:01.876Z,97895.72
2022-11-14T06:36:05.931Z,97884.97
2022-11-14T06:37:07.433Z,97884.34
2022-11-14T06:38:08.940Z,97886.50
2022-11-14T06:39:10.514Z,97880.66
2022-11-14T06:40:12.168Z,97882.06
2022-11-14T06:41:16.321Z,97880.47
2022-11-14T06:42:17.860Z,97889.41
2022-11-14T06:43:19.511Z,97883.44
2022-11-14T06:44:23.104Z,97882.25
2022-11-14T06:45:27.054Z,97879.88
2022-11-14T06:46:28.587Z,97878.59
2022-11-14T06:47:30.103Z,97886.41
2022-11-14T06:48:32.756Z,97882.22
2022-11-14T06:49:39.367Z,97879.41
2022-11-14T06:50:42.841Z,97890.44
2022-11-14T06:51:44.794Z,97882.84
2022-11-14T06:52:46.326Z,97877.97
2022-11-14T06:53:47.968Z,97880.59
2022-11-14T06:54:49.469Z,97882.72
2022-11-14T06:56:24.464Z,97871.50
2022-11-14T06:57:26.006Z,97879.41
2022-11-14T06:58:33.634Z,97873.66
2022-11-14T06:59:35.327Z,97869.66
2022-11-14T07:00:36.856Z,97866.25
2022-11-14T07:01:38.501Z,97869.13
2022-11-14T07:02:40.092Z,97870.19
2022-11-14T07:03:43.026Z,97875.09
2022-11-14T07:04:44.580Z,97869.53
2022-11-14T07:05:46.287Z,97870.69
2022-11-14T07:06:47.830Z,97861.59
2022-11-14T07:07:49.356Z,97863.47
2022-11-14T07:08:52.380Z,97864.09
2022-11-14T07:09:54.463Z,97857.59
2022-11-14T07:11:12.062Z,97852.66
2022-11-14T07:12:13.615Z,97856.13
2022-11-14T07:13:15.160Z,97859.97
2022-11-14T07:14:16.692Z,97855.94
2022-11-14T07:15:18.239Z,97859.34
2022-11-14T07:16:21.010Z,97861.38
2022-11-14T07:17:24.949Z,97852.72
2022-11-14T07:18:33.993Z,97856.63
2022-11-14T07:19:35.800Z,97851.69
2022-11-14T07:20:37.652Z,97851.66
2022-11-14T07:21:39.554Z,97860.22
2022-11-14T07:22:41.089Z,97853.75
2022-11-14T07:23:42.720Z,97852.00
2022-11-14T07:24:44.248Z,97856.94
2022-11-14T07:25:45.766Z,97857.53
2022-11-14T07:26:47.333Z,97847.06
2022-11-14T07:27:48.974Z,97845.47
2022-11-14T07:28:53.615Z,97843.91
2022-11-14T07:29:57.111Z,97849.06
2022-11-14T07:30:58.613Z,97842.53
2022-11-14T07:32:00.183Z,97842.63
2022-11-14T07:33:01.790Z,97838.94
2022-11-14T07:34:03.419Z,97848.03
2022-11-14T07:35:05.286Z,97837.75
2022-11-14T07:36:08.234Z,97841.72
2022-11-14T07:37:09.810Z,97844.69
2022-11-14T07:38:11.424Z,97840.69
2022-11-14T07:39:13.051Z,97841.16
2022-11-14T07:40:15.146Z,97849.56
2022-11-14T07:41:17.056Z,97839.69
2022-11-14T07:42:18.584Z,97841.19
2022-11-14T07:43:20.266Z,97837.78
2022-11-14T07:44:21.806Z,97835.56
2022-11-14T07:45:23.478Z,97838.38
2022-11-14T07:46:25.220Z,97830.41
2022-11-14T07:47:26.941Z,97829.94
2022-11-14T07:48:29.941Z,97835.00
2022-11-14T07:49:32.166Z,97831.81
2022-11-14T07:50:33.773Z,97836.97
2022-11-14T07:51:36.673Z,97828.34
2022-11-14T07:52:38.399Z,97832.59
2022-11-14T07:53:40.915Z,97828.22
2022-11-14T07:54:42.590Z,97828.97
2022-11-14T07:55:44.139Z,97830.56
2022-11-14T07:56:45.699Z,97828.41
2022-11-14T07:57:49.417Z,97833.19
2022-11-14T07:58:51.356Z,97827.44
2022-11-14T07:59:52.901Z,97822.31
2022-11-14T08:00:54.488Z,97824.38
2022-11-14T08:01:56.042Z,97828.75
2022-11-14T08:02:57.703Z,97816.44
2022-11-14T08:03:59.343Z,97825.16
2022-11-14T08:05:01.322Z,97824.88
2022-11-14T08:06:11.670Z,97827.44
2022-11-14T08:07:13.279Z,97830.13
2022-11-14T08:08:14.877Z,97828.25
2022-11-14T08:09:16.469Z,97824.47
2022-11-14T08:10:18.591Z,97821.13
2022-11-14T08:11:40.097Z,97819.94
2022-11-14T08:12:41.713Z,97824.97
2022-11-14T08:13:43.192Z,97819.31
2022-11-14T08:14:44.707Z,97822.56
2022-11-14T08:15:46.226Z,97828.84
2022-11-14T08:16:47.835Z,97820.47
2022-11-14T08:17:49.340Z,97823.91
2022-11-14T08:18:50.843Z,97821.00
2022-11-14T08:19:52.407Z,97818.75
2022-11-14T08:20:57.519Z,97822.84
2022-11-14T08:21:59.031Z,97816.31
2022-11-14T08:23:09.723Z,97821.75
2022-11-14T08:24:11.360Z,97813.88
2022-11-14T08:25:13.116Z,97814.66
2022-11-14T08:26:14.664Z,97818.47
2022-11-14T08:27:16.261Z,97816.25
2022-11-14T08:28:17.892Z,97816.38
2022-11-14T08:29:19.399Z,97812.13
2022-11-14T08:30:20.874Z,97809.09
2022-11-14T08:31:22.681Z,97811.06
2022-11-14T08:32:24.492Z,97800.91
2022-11-14T08:33:26.019Z,97812.78
2022-11-14T08:34:29.299Z,97801.81
2022-11-14T08:35:31.200Z,97811.31
2022-11-14T08:36:32.743Z,97804.19
2022-11-14T08:37:34.438Z,97806.28
2022-11-14T08:38:35.973Z,97809.81
2022-11-14T08:39:37.700Z,97803.84
2022-11-14T08:40:39.198Z,97805.13
2022-11-14T08:41:40.817Z,97802.03
2022-11-14T08:42:42.393Z,97809.94
2022-11-14T08:43:43.939Z,97798.50
2022-11-14T08:44:50.766Z,97799.88
2022-11-14T08:46:01.042Z,97796.63
2022-11-14T08:47:03.845Z,97796.00
2022-11-14T08:48:05.896Z,97798.66
2022-11-14T08:49:07.422Z,97794.44
2022-11-14T08:50:09.090Z,97799.00
2022-11-14T08:51:10.655Z,97790.22
2022-11-14T08:52:16.529Z,97795.22
2022-11-14T08:53:18.665Z,97784.25
2022-11-14T08:54:20.538Z,97779.91
2022-11-14T08:55:22.089Z,97787.22
2022-11-14T08:56:23.762Z,97778.56
2022-11-14T08:57:25.316Z,97779.06
2022-11-14T08:58:31.854Z,97780.81
2022-11-14T08:59:33.774Z,97778.16
2022-11-14T09:00:35.530Z,97771.94
2022-11-14T09:01:37.124Z,97772.59
2022-11-14T09:02:38.703Z,97774.88
2022-11-14T09:03:40.293Z,97767.78
2022-11-14T09:04:42.254Z,97765.94
2022-11-14T09:05:44.780Z,97764.22
2022-11-14T09:06:46.460Z,97763.75
2022-11-14T09:07:48.130Z,97760.56
2022-11-14T09:08:49.697Z,97753.00
2022-11-14T09:09:51.288Z,97753.16
2022-11-14T09:10:52.809Z,97757.59
2022-11-14T09:11:54.470Z,97749.19
2022-11-14T09:13:00.464Z,97755.19
2022-11-14T09:14:02.731Z,97750.00
2022-11-14T09:15:04.625Z,97751.13
2022-11-14T09:16:06.349Z,97750.97
2022-11-14T09:17:07.908Z,97745.13
2022-11-14T09:18:10.840Z,97743.41
2022-11-14T09:19:12.408Z,97746.69
2022-11-14T09:20:14.740Z,97736.25
2022-11-14T09:21:16.285Z,97724.50
2022-11-14T09:22:17.997Z,97731.13
2022-11-14T09:23:19.704Z,97725.56
2022-11-14T09:24:21.396Z,97727.63
2022-11-14T09:25:23.021Z,97721.59
2022-11-14T09:26:24.681Z,97713.50
2022-11-14T09:27:27.361Z,97719.31
2022-11-14T09:28:28.939Z,97721.53
2022-11-14T09:29:30.502Z,97714.09
2022-11-14T09:30:33.900Z,97712.41
2022-11-14T09:31:35.438Z,97707.53
2022-11-14T09:32:36.977Z,97701.13
2022-11-14T09:33:38.580Z,97701.94
2022-11-14T09:34:43.119Z,97700.75
2022-11-14T09:35:44.693Z,97695.78
2022-11-14T09:36:46.771Z,97699.19
2022-11-14T09:37:48.329Z,97698.63
2022-11-14T09:38:51.731Z,97694.63
2022-11-14T09:39:53.285Z,97702.19
2022-11-14T09:41:13.616Z,97698.72
2022-11-14T09:42:18.035Z,97693.91
2022-11-14T09:43:31.991Z,97687.84
2022-11-14T09:44:33.944Z,97689.69
2022-11-14T09:45:42.276Z,97688.22
2022-11-14T09:46:49.378Z,97683.75
2022-11-14T09:47:56.042Z,97683.41
2022-11-14T09:48:58.092Z,97677.94
2022-11-14T09:50:07.281Z,97670.94
2022-11-14T09:51:19.601Z,97676.75
2022-11-14T09:52:37.374Z,97661.22
2022-11-14T09:53:57.832Z,97657.72
2022-11-14T09:55:04.262Z,97658.88
2022-11-14T09:56:10.004Z,97659.09
2022-11-14T09:57:20.157Z,97659.44
2022-11-14T09:58:22.157Z,97651.59
2022-11-14T09:59:24.178Z,97655.91
2022-11-14T10:00:29.810Z,97657.03
2022-11-14T10:01:46.384Z,97652.09
2022-11-14T10:03:06.745Z,97644.16
2022-11-14T10:04:32.000Z,97639.34
2022-11-14T10:05:50.403Z,97646.78
2022-11-14T10:07:20.424Z,97646.03
2022-11-14T10:08:34.320Z,97644.00
2022-11-14T10:09:57.144Z,97633.78
2022-11-14T10:11:22.354Z,97637.66
2022-11-14T10:12:45.266Z,97631.09
2022-11-14T10:13:49.536Z,97625.63
2022-11-14T10:15:21.833Z,97630.19
2022-11-14T10:16:41.341Z,97635.31
2022-11-14T10:18:17.852Z,97627.75
2022-11-14T10:19:42.409Z,97624.00
2022-11-14T10:20:47.292Z,97624.56
2022-11-14T10:22:20.337Z,97622.22
2022-11-14T10:23:51.605Z,97612.75
2022-11-14T10:25:22.541Z,97610.50
2022-11-14T10:26:30.215Z,97614.53
2022-11-14T10:27:43.085Z,97603.78
2022-11-14T10:28:53.844Z,97611.19
2022-11-14T10:30:08.709Z,97608.28
2022-11-14T10:31:19.250Z,97599.63
2022-11-14T10:33:11.697Z,97599.63
2022-11-14T10:34:26.470Z,97595.56
2022-11-14T10:35:35.292Z,97593.47
2022-11-14T10:37:24.402Z,97584.09
2022-11-14T10:38:40.109Z,97586.28
2022-11-14T10:39:50.033Z,97580.78
2022-11-14T10:40:55.421Z,97578.78
2022-11-14T10:42:06.194Z,97576.06
2022-11-14T10:43:30.672Z,97578.13
2022-11-14T10:44:38.659Z,97575.00
2022-11-14T10:45:50.964Z,97576.09
2022-11-14T10:47:01.382Z,97571.50
2022-11-14T10:48:36.555Z,97572.31
2022-11-14T10:49:38.994Z,97570.59
2022-11-14T10:50:51.801Z,97562.53
2022-11-14T10:51:57.381Z,97561.06
2022-11-14T10:53:04.301Z,97566.66
2022-11-14T10:54:17.488Z,97563.88
2022-11-14T10:55:24.853Z,97561.88
2022-11-14T10:56:48.742Z,97556.78
2022-11-14T10:57:50.372Z,97557.00
2022-11-14T10:58:52.125Z,97560.56
2022-11-14T10:59:55.505Z,97552.03
2022-11-14T11:01:19.114Z,97548.41
2022-11-14T11:02:20.679Z,97541.16
2022-11-14T11:03:41.057Z,97541.94
2022-11-14T11:04:44.152Z,97543.53
2022-11-14T11:05:47.422Z,97536.97
2022-11-14T11:06:55.264Z,97536.34
2022-11-14T11:08:41.909Z,97530.38
2022-11-14T11:10:00.053Z,97529.34
2022-11-14T11:11:20.443Z,97529.59
2022-11-14T11:12:25.189Z,97533.63
2022-11-14T11:13:57.681Z,97527.28
2022-11-14T11:15:19.706Z,97522.66
2022-11-14T11:16:26.777Z,97523.22
2022-11-14T11:17:35.069Z,97520.75
2022-11-14T11:18:38.856Z,97516.69
2022-11-14T11:19:41.137Z,97520.03
2022-11-14T11:20:42.659Z,97514.38
2022-11-14T11:21:50.402Z,97508.63
2022-11-14T11:23:05.255Z,97505.16
2022-11-14T11:24:09.091Z,97515.41
2022-11-14T11:25:31.491Z,97510.97
2022-11-14T11:26:33.157Z,97507.53
2022-11-14T11:27:34.703Z,97502.84
2022-11-14T11:28:37.359Z,97506.41
2022-11-14T11:29:38.910Z,97504.50
2022-11-14T11:30:54.586Z,97503.00
2022-11-14T11:31:58.679Z,97500.84
2022-11-14T11:33:23.809Z,97503.91
2022-11-14T11:34:29.180Z,97495.09
2022-11-14T11:35:30.844Z,97488.13
2022-11-14T11:36:47.134Z,97487.94
2022-11-14T11:37:57.251Z,97493.09
2022-11-14T11:39:00.018Z,97493.19
2022-11-14T11:40:04.850Z,97492.47
2022-11-14T11:42:07.717Z,97487.78
2022-11-14T11:43:52.522Z,97484.03
2022-11-14T11:44:50.559Z,97484.22
2022-11-14T11:45:54.975Z,97485.09
2022-11-14T11:47:02.900Z,97474.28
2022-11-14T11:48:18.881Z,97481.44
2022-11-14T11:49:48.673Z,97486.34
2022-11-14T11:50:53.747Z,97473.47
2022-11-14T11:51:57.061Z,97476.25
2022-11-14T11:53:16.663Z,97471.41
2022-11-14T11:54:24.781Z,97477.81
2022-11-14T11:55:36.501Z,97465.50
2022-11-14T11:56:40.278Z,97469.25
2022-11-14T11:58:23.738Z,97470.13
2022-11-14T12:00:15.915Z,97467.09
2022-11-14T12:01:18.305Z,97464.66
2022-11-14T12:02:24.798Z,97465.50
2022-11-14T12:03:26.982Z,97460.03
2022-11-14T12:04:29.860Z,97456.88
2022-11-14T12:05:34.215Z,97459.38
2022-11-14T12:06:46.029Z,97454.91
2022-11-14T12:08:15.958Z,97460.25
2022-11-14T12:10:03.180Z,97449.00
2022-11-14T12:10:57.008Z,97444.25
2022-11-14T12:12:05.903Z,97458.09
2022-11-14T12:13:25.725Z,97449.22
2022-11-14T12:14:54.569Z,97452.78
2022-11-14T12:16:37.574Z,97449.47
2022-11-14T12:17:56.919Z,97447.97
2022-11-14T12:19:16.958Z,97447.97
2022-11-14T12:20:53.950Z,97451.03
2022-11-14T12:22:32.811Z,97449.53
2022-11-14T12:24:03.151Z,97440.47
2022-11-14T12:25:22.673Z,97444.06
2022-11-14T12:26:47.114Z,97438.38
2022-11-14T12:28:36.702Z,97441.50
2022-11-14T12:29:47.615Z,97439.22
2022-11-14T12:30:55.641Z,97444.63
2022-11-14T12:32:04.287Z,97437.03
2022-11-14T12:33:19.168Z,97441.66
2022-11-14T12:34:29.894Z,97436.00
2022-11-14T12:35:34.664Z,97438.25
2022-11-14T12:36:38.415Z,97423.09
2022-11-14T12:37:46.792Z,97429.50
2022-11-14T12:38:53.996Z,97430.53
2022-11-14T12:40:02.440Z,97437.16
2022-11-14T12:41:04.267Z,97430.78
2022-11-14T12:42:10.373Z,97428.94
2022-11-14T12:43:43.161Z,97429.03
2022-11-14T12:44:45.095Z,97422.69